createdAt,value
2022-08-26T00:00:06.808Z,16.08
2022-08-26T00:03:07.976Z,17.48
2022-08-26T00:05:59.810Z,16.73
2022-08-26T00:08:39.787Z,16.73
2022-08-26T00:11:26.795Z,17.38
2022-08-26T00:14:06.793Z,16.58
2022-08-26T00:16:55.886Z,17.38
2022-08-26T00:19:30.333Z,15.70
2022-08-26T00:22:21.664Z,17.23
2022-08-26T00:25:01.814Z,16.50
2022-08-26T00:27:50.783Z,16.33
2022-08-26T00:30:34.815Z,15.60
2022-08-26T00:33:22.803Z,16.98
2022-08-26T00:35:57.097Z,16.45
2022-08-26T00:38:44.818Z,15.85
2022-08-26T00:41:20.077Z,15.52
2022-08-26T00:44:07.802Z,15.40
2022-08-26T00:46:46.860Z,15.57
2022-08-26T00:49:44.827Z,15.15
2022-08-26T00:52:21.138Z,16.58
2022-08-26T00:55:20.281Z,15.20
2022-08-26T00:57:55.538Z,15.45
2022-08-26T01:00:45.212Z,15.18
2022-08-26T01:05:53.814Z,16.27
2022-08-26T01:08:41.851Z,16.83
2022-08-26T01:11:16.267Z,17.35
2022-08-26T01:14:05.830Z,15.90
2022-08-26T01:16:45.892Z,16.83
2022-08-26T01:19:31.865Z,17.63
2022-08-26T01:22:22.823Z,17.02
2022-08-26T01:25:15.815Z,16.77
2022-08-26T01:27:56.866Z,18.02
2022-08-26T01:30:37.896Z,16.75
2022-08-26T01:33:23.801Z,17.60
2022-08-26T01:36:05.347Z,17.73
2022-08-26T01:38:46.836Z,16.67
2022-08-26T01:41:53.519Z,15.98
2022-08-26T01:44:54.830Z,18.33
2022-08-26T01:47:43.843Z,16.08
2022-08-26T01:50:30.845Z,15.88
2022-08-26T01:53:29.819Z,16.37
2022-08-26T01:56:17.830Z,16.45
2022-08-26T01:58:56.977Z,16.88
2022-08-26T02:01:44.874Z,15.15
2022-08-26T02:04:35.008Z,15.52
2022-08-26T02:07:22.870Z,16.00
2022-08-26T02:10:07.851Z,15.50
2022-08-26T02:13:01.886Z,14.98
2022-08-26T02:15:50.850Z,15.65
2022-08-26T02:18:24.891Z,15.27
2022-08-26T02:21:13.857Z,15.50
2022-08-26T02:23:47.907Z,14.82
2022-08-26T02:26:34.907Z,14.88
2022-08-26T02:29:38.871Z,15.95
2022-08-26T02:32:25.869Z,16.85
2022-08-26T02:35:08.876Z,15.75
2022-08-26T02:38:10.016Z,15.77
2022-08-26T02:40:57.912Z,17.10
2022-08-26T02:43:32.953Z,16.70
2022-08-26T02:46:27.715Z,16.35
2022-08-26T02:49:03.960Z,18.58
2022-08-26T02:51:50.868Z,17.98
2022-08-26T02:54:26.938Z,18.10
2022-08-26T02:57:13.871Z,18.40
2022-08-26T02:59:47.956Z,19.63
2022-08-26T03:02:35.886Z,18.63
2022-08-26T03:05:09.978Z,19.55
2022-08-26T03:07:57.864Z,19.25
2022-08-26T03:10:40.877Z,19.98
2022-08-26T03:13:34.864Z,18.90
2022-08-26T03:16:21.934Z,20.02
2022-08-26T03:19:03.891Z,21.10
2022-08-26T03:21:58.238Z,20.83
2022-08-26T03:24:46.145Z,21.73
2022-08-26T03:27:27.898Z,21.38
2022-08-26T03:30:34.935Z,21.10
2022-08-26T03:33:11.265Z,18.50
2022-08-26T03:38:39.879Z,17.13
2022-08-26T03:41:27.888Z,17.98
2022-08-26T03:44:08.878Z,20.77
2022-08-26T03:47:02.877Z,18.33
2022-08-26T03:49:53.890Z,21.60
2022-08-26T03:52:28.226Z,17.88
2022-08-26T03:55:15.899Z,17.15
2022-08-26T03:57:49.971Z,17.30
2022-08-26T04:00:37.932Z,18.20
2022-08-26T04:03:19.235Z,17.58
2022-08-26T04:06:05.931Z,20.88
2022-08-26T04:08:39.953Z,20.10
2022-08-26T04:11:29.936Z,19.80
2022-08-26T04:14:13.904Z,21.98
2022-08-26T04:17:11.904Z,21.83
2022-08-26T04:20:01.891Z,22.13
2022-08-26T04:22:42.898Z,20.75
2022-08-26T04:25:29.902Z,21.23
2022-08-26T04:28:10.906Z,20.63
2022-08-26T04:31:04.919Z,18.35
2022-08-26T04:33:54.928Z,19.55
2022-08-26T04:36:29.107Z,19.95
2022-08-26T04:39:22.916Z,19.63
2022-08-26T04:42:03.927Z,21.00
2022-08-26T04:44:57.919Z,20.38
2022-08-26T04:47:44.917Z,20.35
2022-08-26T04:50:26.919Z,20.25
2022-08-26T04:53:20.914Z,18.80
2022-08-26T04:56:07.947Z,19.55
2022-08-26T04:58:48.912Z,20.48
2022-08-26T05:01:43.975Z,20.85
2022-08-26T05:04:30.977Z,18.63
2022-08-26T05:07:05.947Z,16.63
2022-08-26T05:09:52.955Z,15.40
2022-08-26T05:12:28.213Z,18.08
2022-08-26T05:15:16.925Z,17.17
2022-08-26T05:17:57.943Z,16.63
2022-08-26T05:20:54.543Z,16.70
2022-08-26T05:23:32.016Z,17.75
2022-08-26T05:26:22.954Z,16.40
2022-08-26T05:28:57.020Z,18.33
2022-08-26T05:31:43.959Z,15.57
2022-08-26T05:34:18.000Z,16.13
2022-08-26T05:39:41.242Z,14.88
2022-08-26T05:42:29.949Z,16.92
2022-08-26T05:45:10.983Z,15.02
2022-08-26T05:48:04.950Z,12.55
2022-08-26T05:50:55.953Z,12.70
2022-08-26T05:53:36.135Z,12.90
2022-08-26T05:56:17.973Z,12.70
2022-08-26T05:58:58.449Z,11.23
2022-08-26T06:01:40.037Z,13.48
2022-08-26T06:04:21.041Z,11.85
2022-08-26T06:07:00.981Z,11.75
2022-08-26T06:09:43.965Z,12.43
2022-08-26T06:12:27.008Z,12.02
2022-08-26T06:15:06.966Z,9.45
2022-08-26T06:17:53.978Z,10.40
2022-08-26T06:20:37.002Z,8.35
2022-08-26T06:23:38.097Z,8.85
2022-08-26T06:26:22.959Z,8.68
2022-08-26T06:29:11.001Z,8.43
2022-08-26T06:32:10.976Z,8.63
2022-08-26T06:34:58.008Z,8.50
2022-08-26T06:37:32.087Z,8.70
2022-08-26T06:40:22.036Z,7.30
2022-08-26T06:42:56.031Z,8.95
2022-08-26T06:45:42.976Z,9.10
2022-08-26T06:48:17.128Z,8.57
2022-08-26T06:51:20.025Z,7.10
2022-08-26T06:54:00.136Z,7.53
2022-08-26T06:56:50.023Z,7.88
2022-08-26T06:59:32.004Z,7.75
2022-08-26T07:02:28.589Z,7.22
2022-08-26T07:05:15.976Z,6.82
2022-08-26T07:07:50.269Z,7.60
2022-08-26T07:10:37.988Z,7.32
2022-08-26T07:13:12.440Z,7.80
2022-08-26T07:16:03.172Z,7.35
2022-08-26T07:18:45.969Z,6.85
2022-08-26T07:21:33.006Z,9.20
2022-08-26T07:24:07.059Z,13.25
2022-08-26T07:26:54.010Z,11.90
2022-08-26T07:29:36.001Z,10.75
2022-08-26T07:32:32.998Z,9.40
2022-08-26T07:35:21.025Z,11.68
2022-08-26T07:37:57.037Z,9.93
2022-08-26T07:40:44.122Z,9.77
2022-08-26T07:43:18.510Z,8.98
2022-08-26T07:46:07.031Z,9.40
2022-08-26T07:48:46.203Z,7.18
2022-08-26T07:51:33.993Z,7.78
2022-08-26T07:54:08.090Z,8.10
2022-08-26T07:56:56.164Z,7.25
2022-08-26T07:59:38.023Z,7.72
2022-08-26T08:02:25.040Z,7.35
2022-08-26T08:05:00.227Z,6.75
2022-08-26T08:07:47.035Z,7.22
2022-08-26T08:10:33.017Z,6.97
2022-08-26T08:13:28.007Z,7.47
2022-08-26T08:16:15.020Z,7.05
2022-08-26T08:18:49.101Z,7.72
2022-08-26T08:21:37.029Z,6.57
2022-08-26T08:24:18.038Z,8.15
2022-08-26T08:27:12.096Z,7.05
2022-08-26T08:30:01.035Z,7.57
2022-08-26T08:32:35.445Z,7.57
2022-08-26T08:35:24.027Z,6.80
2022-08-26T08:37:58.178Z,6.65
2022-08-26T08:40:48.038Z,7.47
2022-08-26T08:43:37.699Z,6.55
2022-08-26T08:46:26.088Z,6.68
2022-08-26T08:49:04.231Z,6.57
2022-08-26T08:51:52.055Z,6.47
2022-08-26T08:54:30.067Z,7.45
2022-08-26T08:57:55.053Z,6.40
2022-08-26T09:00:45.085Z,6.53
2022-08-26T09:03:45.049Z,6.78
2022-08-26T09:06:20.521Z,6.60
2022-08-26T09:09:09.020Z,6.00
2022-08-26T09:11:50.123Z,5.97
2022-08-26T09:14:30.048Z,6.00
2022-08-26T09:17:46.733Z,5.43
2022-08-26T09:20:35.065Z,6.32
2022-08-26T09:23:18.313Z,6.10
2022-08-26T09:26:02.064Z,6.15
2022-08-26T09:28:43.193Z,5.70
2022-08-26T09:31:32.096Z,5.35
2022-08-26T09:34:39.072Z,6.25
2022-08-26T09:37:20.085Z,5.57
2022-08-26T09:40:24.081Z,6.13
2022-08-26T09:43:03.437Z,5.22
2022-08-26T09:45:55.896Z,5.10
2022-08-26T09:48:36.571Z,5.20
2022-08-26T09:51:34.061Z,4.47
2022-08-26T09:54:08.256Z,5.00
2022-08-26T09:56:56.094Z,4.57
2022-08-26T09:59:30.851Z,4.55
2022-08-26T10:02:53.731Z,4.43
2022-08-26T10:05:56.446Z,5.30
2022-08-26T10:08:54.179Z,5.03
2022-08-26T10:12:13.093Z,4.65
2022-08-26T10:14:59.218Z,4.47
2022-08-26T10:17:53.109Z,4.18
2022-08-26T10:20:39.211Z,4.10
2022-08-26T10:23:31.115Z,4.15
2022-08-26T10:26:22.178Z,4.03
2022-08-26T10:29:20.121Z,4.00
2022-08-26T10:32:08.308Z,3.97
2022-08-26T10:34:54.124Z,4.68
2022-08-26T10:37:46.760Z,3.92
2022-08-26T10:40:56.099Z,4.15
2022-08-26T10:43:55.095Z,3.78
2022-08-26T10:46:40.994Z,3.95
2022-08-26T10:49:30.106Z,4.85
2022-08-26T10:52:24.105Z,3.72
2022-08-26T10:55:48.111Z,4.10
2022-08-26T10:58:36.449Z,4.45
2022-08-26T11:01:51.010Z,4.15
2022-08-26T11:04:48.255Z,4.22
2022-08-26T11:08:03.137Z,4.15
2022-08-26T11:10:58.962Z,4.90
2022-08-26T11:14:05.134Z,4.28
2022-08-26T11:16:49.339Z,4.43
2022-08-26T11:20:00.108Z,4.65
2022-08-26T11:22:47.824Z,4.07
2022-08-26T11:25:32.107Z,4.05
2022-08-26T11:28:13.585Z,4.07
2022-08-26T11:30:58.019Z,3.97
2022-08-26T11:33:51.053Z,4.68
2022-08-26T11:36:46.113Z,4.53
2022-08-26T11:39:52.650Z,4.85
2022-08-26T11:42:37.826Z,4.20
2022-08-26T11:45:38.141Z,4.30
2022-08-26T11:48:44.361Z,4.50
2022-08-26T11:51:40.556Z,6.00
2022-08-26T11:54:35.107Z,4.68
2022-08-26T11:57:18.150Z,4.35
2022-08-26T12:00:22.430Z,4.22
2022-08-26T12:03:08.410Z,4.05
2022-08-26T12:06:00.158Z,4.25
2022-08-26T12:08:34.531Z,4.18
2022-08-26T12:11:27.128Z,4.35
2022-08-26T12:14:07.429Z,4.25
2022-08-26T12:16:55.232Z,4.40
2022-08-26T12:19:32.918Z,4.18
2022-08-26T12:22:37.147Z,4.22
2022-08-26T12:25:11.616Z,4.18
2022-08-26T12:27:59.154Z,4.20
2022-08-26T12:30:32.764Z,4.18
2022-08-26T12:33:26.202Z,4.00
2022-08-26T12:36:02.020Z,3.92
2022-08-26T12:38:50.215Z,4.13
2022-08-26T12:41:56.192Z,3.63
2022-08-26T12:44:39.363Z,4.25
2022-08-26T12:47:42.156Z,3.85
2022-08-26T12:50:59.178Z,3.60
2022-08-26T12:53:34.862Z,3.97
2022-08-26T12:56:42.224Z,4.10
2022-08-26T12:59:23.392Z,4.10
2022-08-26T13:02:11.316Z,4.00
2022-08-26T13:04:46.231Z,4.28
2022-08-26T13:07:39.196Z,3.92
2022-08-26T13:10:34.279Z,3.95
2022-08-26T13:13:22.222Z,3.95
2022-08-26T13:15:56.259Z,4.15
2022-08-26T13:18:44.285Z,4.60
2022-08-26T13:21:21.800Z,4.55
2022-08-26T13:24:09.241Z,4.18
2022-08-26T13:26:45.902Z,4.30
2022-08-26T13:29:33.240Z,3.90
2022-08-26T13:32:07.948Z,4.60
2022-08-26T13:35:05.703Z,5.18
2022-08-26T13:37:46.322Z,5.00
2022-08-26T13:40:34.820Z,4.40
2022-08-26T13:43:08.950Z,4.78
2022-08-26T13:45:58.225Z,3.97
2022-08-26T13:48:39.216Z,5.20
2022-08-26T13:51:31.259Z,4.47
2022-08-26T13:54:12.220Z,4.68
2022-08-26T13:56:59.251Z,3.90
2022-08-26T13:59:32.922Z,4.43
2022-08-26T14:02:19.260Z,3.75
2022-08-26T14:04:54.845Z,5.00
2022-08-26T14:07:42.234Z,4.30
2022-08-26T14:10:16.050Z,4.63
2022-08-26T14:13:05.299Z,4.43
2022-08-26T14:15:41.044Z,4.47
2022-08-26T14:18:31.259Z,4.63
2022-08-26T14:21:20.266Z,4.82
2022-08-26T14:24:01.298Z,5.10
2022-08-26T14:26:41.873Z,4.30
2022-08-26T14:29:29.275Z,5.47
2022-08-26T14:32:22.959Z,4.70
2022-08-26T14:35:10.231Z,4.78
2022-08-26T14:37:43.999Z,5.45
2022-08-26T14:40:33.880Z,4.40
2022-08-26T14:43:15.251Z,4.32
2022-08-26T14:46:03.315Z,4.75
2022-08-26T14:48:36.861Z,4.22
2022-08-26T14:51:24.260Z,4.40
2022-08-26T14:54:13.146Z,4.32
2022-08-26T14:57:02.312Z,4.55
2022-08-26T14:59:41.424Z,4.65
2022-08-26T15:02:32.937Z,4.78
2022-08-26T15:05:08.692Z,4.57
2022-08-26T15:07:56.280Z,4.95
2022-08-26T15:10:29.820Z,4.90
2022-08-26T15:13:16.269Z,4.57
2022-08-26T15:15:49.906Z,4.80
2022-08-26T15:18:38.279Z,4.25
2022-08-26T15:24:07.278Z,4.55
2022-08-26T15:26:47.296Z,4.82
2022-08-26T15:29:36.294Z,4.95
2022-08-26T15:32:09.932Z,4.20
2022-08-26T15:34:57.300Z,5.97
2022-08-26T15:37:30.860Z,4.70
2022-08-26T15:40:18.343Z,4.18
2022-08-26T15:43:11.366Z,4.38
2022-08-26T15:46:03.362Z,4.60
2022-08-26T15:48:36.910Z,4.47
2022-08-26T15:51:45.575Z,5.13
2022-08-26T15:54:22.687Z,5.05
2022-08-26T15:57:12.352Z,4.80
2022-08-26T15:59:46.850Z,4.88
2022-08-26T16:02:34.295Z,4.75
2022-08-26T16:05:08.287Z,4.57
2022-08-26T16:07:56.310Z,5.20
2022-08-26T16:10:37.302Z,4.63
2022-08-26T16:13:18.847Z,5.45
2022-08-26T16:16:00.358Z,5.20
2022-08-26T16:18:43.384Z,4.95
2022-08-26T16:21:31.347Z,6.18
2022-08-26T16:24:20.300Z,5.75
2022-08-26T16:26:54.568Z,5.38
2022-08-26T16:29:42.326Z,5.32
2022-08-26T16:32:31.279Z,5.53
2022-08-26T16:35:05.341Z,4.40
2022-08-26T16:37:52.322Z,5.03
2022-08-26T16:40:26.439Z,4.93
2022-08-26T16:43:15.258Z,4.53
2022-08-26T16:45:56.525Z,5.07
2022-08-26T16:48:36.318Z,5.43
2022-08-26T16:51:28.394Z,5.13
2022-08-26T16:54:09.329Z,4.25
2022-08-26T16:56:50.416Z,5.07
2022-08-26T16:59:30.352Z,4.20
2022-08-26T17:02:11.973Z,4.82
2022-08-26T17:04:53.329Z,4.20
2022-08-26T17:07:35.599Z,4.90
2022-08-26T17:10:16.317Z,4.65
2022-08-26T17:12:57.454Z,4.03
2022-08-26T17:15:37.399Z,4.78
2022-08-26T17:18:17.496Z,4.47
2022-08-26T17:20:59.343Z,5.22
2022-08-26T17:23:39.503Z,6.43
2022-08-26T17:26:19.318Z,5.95
2022-08-26T17:29:00.376Z,5.00
2022-08-26T17:31:41.326Z,4.90
2022-08-26T17:34:24.372Z,31.77
2022-08-26T17:37:04.297Z,23.73
2022-08-26T17:39:52.331Z,12.98
2022-08-26T17:42:32.288Z,9.02
2022-08-26T17:45:13.475Z,7.78
2022-08-26T17:48:03.349Z,7.25
2022-08-26T17:50:37.517Z,28.88
2022-08-26T17:53:25.340Z,31.88
2022-08-26T17:56:00.354Z,53.42
2022-08-26T17:58:51.281Z,46.50
2022-08-26T18:01:28.506Z,63.15
2022-08-26T18:04:16.356Z,96.38
2022-08-26T18:06:50.401Z,36.17
2022-08-26T18:09:38.310Z,15.65
2022-08-26T18:12:19.340Z,11.20
2022-08-26T18:15:06.310Z,9.38
2022-08-26T18:17:40.461Z,7.88
2022-08-26T18:20:27.325Z,8.15
2022-08-26T18:23:01.374Z,7.38
2022-08-26T18:25:49.324Z,8.55
2022-08-26T18:28:23.585Z,8.68
2022-08-26T18:31:13.490Z,7.95
2022-08-26T18:33:47.390Z,8.32
2022-08-26T18:36:36.348Z,8.90
2022-08-26T18:39:11.409Z,11.77
2022-08-26T18:41:59.327Z,12.48
2022-08-26T18:44:33.447Z,11.52
2022-08-26T18:47:21.338Z,12.90
2022-08-26T18:49:55.407Z,12.73
2022-08-26T18:52:42.345Z,11.82
2022-08-26T18:55:17.410Z,11.30
2022-08-26T18:58:04.351Z,10.55
2022-08-26T19:00:39.421Z,10.10
2022-08-26T19:03:26.371Z,9.38
2022-08-26T19:06:00.455Z,9.57
2022-08-26T19:08:49.741Z,9.73
2022-08-26T19:11:31.380Z,10.77
2022-08-26T19:14:21.346Z,9.38
2022-08-26T19:16:56.534Z,9.43
2022-08-26T19:19:44.365Z,8.93
2022-08-26T19:22:19.910Z,10.05
2022-08-26T19:25:07.367Z,8.20
2022-08-26T19:27:41.468Z,9.48
2022-08-26T19:30:29.367Z,8.45
2022-08-26T19:33:16.978Z,7.93
2022-08-26T19:35:58.393Z,8.52
2022-08-26T19:38:40.021Z,7.93
2022-08-26T19:41:23.721Z,7.75
2022-08-26T19:44:08.058Z,8.73
2022-08-26T19:46:47.909Z,7.55
2022-08-26T19:49:34.961Z,8.50
2022-08-26T19:52:15.910Z,7.90
2022-08-26T19:55:03.961Z,9.20
2022-08-26T19:57:40.031Z,8.00
2022-08-26T20:00:28.929Z,10.32
2022-08-26T20:03:03.314Z,11.05
2022-08-26T20:05:49.939Z,9.95
2022-08-26T20:08:23.517Z,10.20
2022-08-26T20:11:15.922Z,9.02
2022-08-26T20:13:55.936Z,8.82
2022-08-26T20:16:43.991Z,8.75
2022-08-26T20:19:37.643Z,8.10
2022-08-26T20:22:25.980Z,8.07
2022-08-26T20:25:05.991Z,9.30
2022-08-26T20:27:54.005Z,8.13
2022-08-26T20:30:27.704Z,8.25
2022-08-26T20:33:14.985Z,8.20
2022-08-26T20:35:54.989Z,7.82
2022-08-26T20:38:35.036Z,8.48
2022-08-26T20:41:15.002Z,8.07
2022-08-26T20:43:56.068Z,7.45
2022-08-26T20:46:35.987Z,7.50
2022-08-26T20:49:18.704Z,7.13
2022-08-26T20:51:59.998Z,7.07
2022-08-26T20:54:41.054Z,7.82
2022-08-26T20:57:21.009Z,7.97
2022-08-26T21:00:01.075Z,8.82
2022-08-26T21:02:40.996Z,7.18
2022-08-26T21:05:22.051Z,6.95
2022-08-26T21:08:03.029Z,8.07
2022-08-26T21:10:45.583Z,8.18
2022-08-26T21:13:26.025Z,7.72
2022-08-26T21:16:07.137Z,7.78
2022-08-26T21:18:47.010Z,7.10
2022-08-26T21:21:28.164Z,8.45
2022-08-26T21:24:08.012Z,8.25
2022-08-26T21:26:49.138Z,7.78
2022-08-26T21:29:30.021Z,6.90
2022-08-26T21:32:12.414Z,7.47
2022-08-26T21:34:57.003Z,7.65
2022-08-26T21:37:38.071Z,7.22
2022-08-26T21:40:19.074Z,5.75
2022-08-26T21:43:07.016Z,6.57
2022-08-26T21:45:41.393Z,6.95
2022-08-26T21:48:29.568Z,6.95
2022-08-26T21:51:16.017Z,7.15
2022-08-26T21:53:58.170Z,7.32
2022-08-26T21:56:39.002Z,7.97
2022-08-26T21:59:20.107Z,5.88
2022-08-26T22:02:01.091Z,6.28
2022-08-26T22:04:48.130Z,6.38
2022-08-26T22:07:36.047Z,6.40
2022-08-26T22:10:10.096Z,5.88
2022-08-26T22:12:57.022Z,6.18
2022-08-26T22:15:33.061Z,6.57
2022-08-26T22:18:20.049Z,6.28
2022-08-26T22:20:55.508Z,6.47
2022-08-26T22:23:43.028Z,6.18
2022-08-26T22:26:25.451Z,6.30
2022-08-26T22:29:14.027Z,6.78
2022-08-26T22:31:55.159Z,7.10
2022-08-26T22:34:49.038Z,7.82
2022-08-26T22:37:36.024Z,7.20
2022-08-26T22:40:10.246Z,6.30
2022-08-26T22:42:59.983Z,6.30
2022-08-26T22:45:34.393Z,6.80
2022-08-26T22:48:23.055Z,7.38
2022-08-26T22:51:00.286Z,6.65
2022-08-26T22:53:47.078Z,6.13
2022-08-26T22:56:28.040Z,6.40
2022-08-26T22:59:23.058Z,6.22
2022-08-26T23:02:11.111Z,5.70
2022-08-26T23:04:54.081Z,6.30
2022-08-26T23:07:49.049Z,5.85
2022-08-26T23:10:36.094Z,7.38
2022-08-26T23:13:11.115Z,7.20
2022-08-26T23:16:08.095Z,6.85
2022-08-26T23:18:42.157Z,7.85
2022-08-26T23:21:29.047Z,6.50
2022-08-26T23:24:03.158Z,7.03
2022-08-26T23:26:51.062Z,6.60
2022-08-26T23:29:25.122Z,6.47
2022-08-26T23:32:12.091Z,6.00
2022-08-26T23:35:01.560Z,5.53
2022-08-26T23:37:52.096Z,5.85
2022-08-26T23:40:36.281Z,7.05
2022-08-26T23:43:23.099Z,7.22
2022-08-26T23:45:57.191Z,6.38
2022-08-26T23:48:45.074Z,7.10
2022-08-26T23:51:43.626Z,6.25
2022-08-26T23:54:26.069Z,6.00
2022-08-26T23:57:06.204Z,5.82
2022-08-26T23:59:47.068Z,6.95
